Time;durP1;ratioP1;P1;durP2;ratioP2;P2;SDS_P1;SDS_P2;PMS_P1;PMS_P2;Temp;Humidity;BMP_temperature;BMP_pressure;BME280_temperature;BME280_humidity;BME280_pressure;Samples;Min_cycle;Max_cycle;Signal;HPM_P1;HPM_P2
2021/08/24 00:06:46;;;;;;;8.32;3.47;;;27.90;35.60;;;;;;21063528;27;81101;-70
2021/08/24 00:16:48;;;;;;;8.98;2.47;;;27.80;35.50;;;;;;21044348;27;80768;-72
2021/08/24 00:26:50;;;;;;;5.60;2.42;;;27.60;35.30;;;;;;21044708;27;80795;-71
2021/08/24 00:36:52;;;;;;;4.75;2.42;;;27.50;35.80;;;;;;21043963;27;80721;-71
2021/08/24 00:46:54;;;;;;;9.82;2.65;;;27.40;36.20;;;;;;21044458;27;81464;-72
2021/08/24 00:57:09;;;;;;;7.88;3.05;;;27.30;35.90;;;;;;21043072;27;80821;-71
2021/08/24 01:07:43;;;;;;;10.77;2.85;;;27.10;36.30;;;;;;21060727;27;80355;-73
2021/08/24 01:18:07;;;;;;;5.65;2.92;;;26.90;37.30;;;;;;21031062;27;80622;-75
2021/08/24 01:28:23;;;;;;;5.25;2.88;;;26.70;37.90;;;;;;21058501;27;80627;-73
2021/08/24 01:38:33;;;;;;;10.13;3.42;;;26.70;38.50;;;;;;21040278;27;79880;-72
2021/08/24 01:48:45;;;;;;;7.72;2.80;;;26.40;40.20;;;;;;21039575;27;80784;-71
2021/08/24 01:58:59;;;;;;;6.47;2.92;;;26.10;41.70;;;;;;21039837;27;81363;-74
2021/08/24 02:09:21;;;;;;;12.07;3.38;;;26.00;41.60;;;;;;21037320;27;82131;-72
2021/08/24 02:19:30;;;;;;;4.40;3.20;;;25.90;41.60;;;;;;21057413;27;80033;-72
2021/08/24 02:29:35;;;;;;;9.13;2.80;;;25.70;42.30;;;;;;21036112;27;80803;-72
2021/08/24 02:39:58;;;;;;;5.95;2.70;;;25.60;43.00;;;;;;21054351;27;81919;-71
2021/08/24 02:50:03;;;;;;;5.18;2.67;;;25.50;42.90;;;;;;21035604;27;80985;-71
2021/08/24 03:00:07;;;;;;;6.38;2.55;;;25.50;43.10;;;;;;21052958;27;81202;-71
2021/08/24 03:10:16;;;;;;;5.82;2.92;;;25.30;43.30;;;;;;21034070;27;80567;-70
2021/08/24 03:20:23;;;;;;;7.93;3.20;;;25.30;44.30;;;;;;21048936;27;80072;-72
2021/08/24 03:30:25;;;;;;;6.43;3.10;;;25.20;44.00;;;;;;21048455;27;80965;-75
2021/08/24 03:40:28;;;;;;;4.75;2.58;;;25.00;44.10;;;;;;21048295;27;80309;-71
2021/08/24 03:50:32;;;;;;;4.57;2.60;;;24.90;46.50;;;;;;21048810;27;81036;-73
2021/08/24 04:00:35;;;;;;;6.13;2.55;;;24.60;45.60;;;;;;21064256;27;80802;-72
2021/08/24 04:10:39;;;;;;;6.85;3.13;;;24.60;45.40;;;;;;21064715;27;80013;-71
2021/08/24 04:20:43;;;;;;;5.78;3.72;;;24.50;45.40;;;;;;21047434;27;80980;-74
2021/08/24 04:30:47;;;;;;;5.85;2.33;;;24.40;46.10;;;;;;21043636;27;80599;-74
2021/08/24 04:40:52;;;;;;;5.53;2.58;;;24.40;45.40;;;;;;21044266;27;80441;-78
2021/08/24 04:50:57;;;;;;;8.10;3.13;;;24.30;45.60;;;;;;21062752;27;81315;-70
2021/08/24 05:01:01;;;;;;;5.07;2.63;;;24.30;45.60;;;;;;21062424;27;81944;-70
2021/08/24 05:11:02;;;;;;;11.80;3.00;;;24.30;46.00;;;;;;21065027;27;80781;-77
2021/08/24 05:21:07;;;;;;;10.20;3.97;;;24.20;46.40;;;;;;21043759;27;80519;-74
2021/08/24 05:31:13;;;;;;;11.18;2.78;;;24.20;47.30;;;;;;21077784;27;80782;-75
2021/08/24 05:41:18;;;;;;;5.65;2.75;;;24.00;47.10;;;;;;21108835;27;82509;-72
2021/08/24 05:51:22;;;;;;;6.88;3.10;;;24.00;47.30;;;;;;21101485;27;81308;-72
2021/08/24 06:01:27;;;;;;;5.80;2.83;;;24.00;47.30;;;;;;21109803;27;82097;-72
2021/08/24 06:11:33;;;;;;;7.18;3.15;;;24.00;47.10;;;;;;21130257;27;81732;-73
2021/08/24 06:21:35;;;;;;;10.45;3.60;;;24.00;47.00;;;;;;21111223;27;81448;-71
2021/08/24 06:31:41;;;;;;;6.78;3.30;;;24.00;46.60;;;;;;21124699;27;81133;-72
2021/08/24 06:41:45;;;;;;;10.35;3.60;;;24.10;46.90;;;;;;21109405;27;81219;-73
2021/08/24 06:51:48;;;;;;;9.18;3.50;;;24.20;46.10;;;;;;21108995;27;80909;-78
2021/08/24 07:01:56;;;;;;;8.93;3.22;;;24.40;45.60;;;;;;21105732;27;81677;-78
2021/08/24 07:11:59;;;;;;;8.77;3.47;;;24.50;46.00;;;;;;21109433;27;81402;-78
2021/08/24 07:22:04;;;;;;;10.88;3.72;;;24.70;45.00;;;;;;21112895;27;81136;-66
2021/08/24 07:32:09;;;;;;;7.32;3.38;;;24.90;44.40;;;;;;21107671;27;81517;-66
2021/08/24 07:42:12;;;;;;;7.97;3.33;;;25.20;44.20;;;;;;21106372;27;81423;-65
2021/08/24 07:52:16;;;;;;;11.93;3.17;;;25.20;44.00;;;;;;21123398;27;81832;-65
2021/08/24 08:02:18;;;;;;;7.00;3.10;;;25.50;43.60;;;;;;21126520;27;82416;-67
2021/08/24 08:12:22;;;;;;;13.80;3.47;;;25.80;43.20;;;;;;21137286;27;81297;-66
2021/08/24 08:22:24;;;;;;;9.10;3.83;;;26.20;42.70;;;;;;21135365;27;81179;-66
2021/08/24 08:32:30;;;;;;;8.07;3.50;;;26.70;42.20;;;;;;21117311;27;81194;-67
2021/08/24 08:43:03;;;;;;;7.25;2.75;;;27.10;41.60;;;;;;21118499;27;82648;-67
2021/08/24 08:53:25;;;;;;;8.35;2.97;;;27.50;41.30;;;;;;21130053;27;81180;-67
2021/08/24 09:03:51;;;;;;;13.85;3.13;;;27.70;40.90;;;;;;21117480;27;81498;-66
2021/08/24 09:14:23;;;;;;;7.53;2.85;;;28.10;40.10;;;;;;21117515;27;81713;-69
2021/08/24 09:24:29;;;;;;;10.93;3.40;;;28.70;39.40;;;;;;21134425;27;81151;-68
2021/08/24 09:34:41;;;;;;;7.45;3.67;;;29.40;39.50;;;;;;21121505;27;81844;-68
2021/08/24 09:44:45;;;;;;;8.55;3.13;;;29.90;37.60;;;;;;21130912;27;81041;-67
2021/08/24 09:55:01;;;;;;;10.40;3.30;;;30.50;36.20;;;;;;21127542;27;81843;-66
2021/08/24 10:05:31;;;;;;;14.35;4.50;;;31.80;34.80;;;;;;21113821;27;81963;-65
2021/08/24 10:15:38;;;;;;;6.03;3.00;;;32.50;34.40;;;;;;21110381;27;81020;-68
2021/08/24 10:25:51;;;;;;;13.85;4.53;;;34.20;32.00;;;;;;21109961;27;81086;-67
2021/08/24 10:36:01;;;;;;;9.07;3.92;;;34.10;31.00;;;;;;21107182;27;81584;-67
2021/08/24 10:46:14;;;;;;;16.92;4.35;;;33.20;32.20;;;;;;21110391;27;81269;-67
2021/08/24 10:56:38;;;;;;;23.73;4.82;;;35.20;29.90;;;;;;21106724;27;80912;-66
2021/08/24 11:06:56;;;;;;;12.98;3.63;;;37.60;27.50;;;;;;21104471;27;81896;-67
2021/08/24 11:17:16;;;;;;;15.50;3.80;;;37.80;27.10;;;;;;21108690;27;82219;-66
2021/08/24 11:27:47;;;;;;;10.68;4.03;;;36.00;29.50;;;;;;21123164;27;81837;-66
2021/08/24 11:38:04;;;;;;;9.32;3.40;;;35.80;30.30;;;;;;21117392;27;82361;-67
2021/08/24 11:48:25;;;;;;;9.27;3.40;;;35.20;30.00;;;;;;21122923;27;81449;-66
2021/08/24 11:58:42;;;;;;;12.05;4.43;;;32.30;34.30;;;;;;21122072;27;81637;-67
2021/08/24 12:08:49;;;;;;;12.07;4.03;;;31.30;35.70;;;;;;21114433;27;81342;-66
2021/08/24 12:19:09;;;;;;;14.82;3.95;;;33.40;32.40;;;;;;21114824;27;81111;-67
2021/08/24 12:29:34;;;;;;;8.75;3.83;;;32.90;33.50;;;;;;21117609;27;81371;-68
2021/08/24 12:39:42;;;;;;;11.00;4.10;;;40.20;25.20;;;;;;21145824;27;80985;-67
2021/08/24 12:49:45;;;;;;;14.07;4.90;;;37.80;27.00;;;;;;21147985;27;81254;-73
2021/08/24 12:59:50;;;;;;;17.23;5.05;;;34.40;30.70;;;;;;21148381;27;80722;-68
2021/08/24 13:09:54;;;;;;;11.85;4.55;;;38.00;26.70;;;;;;21127810;27;80852;-64
2021/08/24 13:20:00;;;;;;;13.48;4.38;;;39.60;25.10;;;;;;21146248;27;80993;-64
2021/08/24 13:30:09;;;;;;;11.13;4.72;;;39.00;26.30;;;;;;21143392;27;80716;-67
2021/08/24 13:40:28;;;;;;;11.18;4.32;;;41.40;22.60;;;;;;21127201;27;81155;-66
2021/08/24 13:50:42;;;;;;;13.88;4.00;;;43.30;20.40;;;;;;21144231;27;80983;-63
2021/08/24 14:01:08;;;;;;;13.40;4.25;;;44.70;19.00;;;;;;21132707;27;81047;-65
2021/08/24 14:11:21;;;;;;;13.70;4.50;;;45.00;19.20;;;;;;21077282;27;80865;-65
2021/08/24 14:21:26;;;;;;;12.65;4.25;;;49.90;16.10;;;;;;21035522;27;80013;-67
2021/08/24 14:31:33;;;;;;;12.83;4.60;;;51.40;15.40;;;;;;21055437;27;81118;-65
2021/08/24 14:41:55;;;;;;;10.50;5.00;;;53.60;14.50;;;;;;21054596;27;81347;-66
2021/08/24 14:51:57;;;;;;;11.88;4.60;;;54.20;13.90;;;;;;21033851;27;81299;-66
2021/08/24 15:02:15;;;;;;;14.90;5.57;;;49.80;15.60;;;;;;21050705;27;79994;-65
2021/08/24 15:12:20;;;;;;;;;;;52.50;14.30;;;;;;21203850;27;82041;-65
2021/08/24 15:22:26;;;;;;;18.77;4.50;;;50.00;15.70;;;;;;21227330;27;80606;-66
2021/08/24 15:32:36;;;;;;;14.35;4.68;;;45.90;17.60;;;;;;21205266;27;80084;-66
2021/08/24 15:42:38;;;;;;;15.30;4.03;;;44.20;18.40;;;;;;21223112;27;80825;-65
2021/08/24 15:52:45;;;;;;;17.58;4.70;;;42.80;19.80;;;;;;21205379;27;80772;-65
2021/08/24 16:02:48;;;;;;;9.85;3.78;;;45.30;17.80;;;;;;21204760;27;80882;-65
2021/08/24 16:12:51;;;;;;;15.52;4.00;;;44.70;17.70;;;;;;21222796;27;81793;-64
2021/08/24 16:22:53;;;;;;;15.05;4.72;;;41.30;19.80;;;;;;21209386;27;80674;-62
2021/08/24 16:32:57;;;;;;;14.10;4.57;;;40.60;20.20;;;;;;21236434;27;81866;-66
2021/08/24 16:42:59;;;;;;;15.05;4.15;;;39.20;21.10;;;;;;21217021;27;83050;-64
2021/08/24 16:53:02;;;;;;;14.45;4.38;;;38.00;21.80;;;;;;21215190;27;80626;-66
2021/08/24 17:03:05;;;;;;;17.95;4.95;;;37.30;23.50;;;;;;21216333;27;81850;-66
2021/08/24 17:13:09;;;;;;;18.23;5.45;;;36.60;23.30;;;;;;21214825;27;80760;-66
2021/08/24 17:23:12;;;;;;;12.48;4.75;;;36.10;24.00;;;;;;21214023;27;82877;-66
2021/08/24 17:33:15;;;;;;;13.98;5.03;;;35.80;24.60;;;;;;21213769;27;81258;-65
2021/08/24 17:43:18;;;;;;;16.98;6.40;;;35.40;24.70;;;;;;21214102;27;82930;-66
2021/08/24 17:53:20;;;;;;;16.40;5.97;;;34.90;25.30;;;;;;21212358;27;80935;-65
2021/08/24 18:03:22;;;;;;;17.45;4.80;;;34.50;25.60;;;;;;21212792;27;81164;-65
2021/08/24 18:13:25;;;;;;;13.55;4.70;;;34.10;26.00;;;;;;21213378;27;81346;-66
2021/08/24 18:23:28;;;;;;;17.02;6.55;;;33.70;26.50;;;;;;21213617;27;80116;-65
2021/08/24 18:33:30;;;;;;;19.98;8.85;;;33.30;27.70;;;;;;21207331;27;80511;-71
2021/08/24 18:43:34;;;;;;;189.88;60.70;;;33.00;28.60;;;;;;21210330;27;81165;-73
2021/08/24 18:53:42;;;;;;;40.35;15.52;;;32.60;30.60;;;;;;21201945;27;82678;-76
2021/08/24 19:03:47;;;;;;;21.40;9.45;;;32.40;30.50;;;;;;21207303;27;84519;-72
2021/08/24 19:13:51;;;;;;;37.58;13.38;;;32.00;31.20;;;;;;21196877;27;83337;-77
2021/08/24 19:23:53;;;;;;;22.13;7.20;;;31.70;32.10;;;;;;21193574;27;82952;-73
2021/08/24 19:33:55;;;;;;;13.93;5.43;;;31.40;32.40;;;;;;21209536;27;82260;-73
2021/08/24 19:43:57;;;;;;;20.77;9.93;;;31.30;32.90;;;;;;21225516;27;80831;-73
2021/08/24 19:53:59;;;;;;;13.57;5.28;;;31.00;33.70;;;;;;21154531;27;80309;-73
2021/08/24 20:04:03;;;;;;;15.98;6.30;;;30.80;34.10;;;;;;21152805;27;80749;-74
2021/08/24 20:14:11;;;;;;;21.63;7.30;;;30.50;34.80;;;;;;21152129;27;80593;-76
2021/08/24 20:24:24;;;;;;;26.08;4.63;;;30.40;35.00;;;;;;21133329;27;80695;-74
2021/08/24 20:34:30;;;;;;;19.52;3.58;;;30.10;35.60;;;;;;21131773;27;80503;-71
2021/08/24 20:44:33;;;;;;;15.07;3.83;;;29.40;35.60;;;;;;21132482;27;80920;-74
2021/08/24 20:54:35;;;;;;;16.25;3.70;;;29.00;36.30;;;;;;21130391;27;81920;-72
2021/08/24 21:04:37;;;;;;;12.07;3.22;;;28.80;36.80;;;;;;21127747;27;81765;-73
2021/08/24 21:14:59;;;;;;;10.98;2.90;;;28.60;37.80;;;;;;21147285;27;79961;-74
2021/08/24 21:25:02;;;;;;;14.65;3.35;;;28.50;38.70;;;;;;21147761;27;80975;-74
2021/08/24 21:35:05;;;;;;;13.82;3.33;;;28.20;39.30;;;;;;21127662;27;81244;-75
2021/08/24 21:45:29;;;;;;;8.52;2.40;;;28.00;39.30;;;;;;21129587;27;80671;-76
2021/08/24 21:55:33;;;;;;;12.88;3.25;;;27.90;39.60;;;;;;21125772;27;80522;-77
2021/08/24 22:05:39;;;;;;;6.10;2.60;;;27.80;39.90;;;;;;21126233;27;80778;-72
2021/08/24 22:15:41;;;;;;;10.27;3.45;;;27.60;40.10;;;;;;21122733;27;80026;-72
2021/08/24 22:25:44;;;;;;;10.88;2.72;;;27.60;39.70;;;;;;21123032;27;80993;-73
2021/08/24 22:35:58;;;;;;;6.78;2.40;;;27.60;38.70;;;;;;21123100;27;79855;-71
2021/08/24 22:46:02;;;;;;;10.35;2.75;;;27.70;38.40;;;;;;21121834;27;80754;-75
2021/08/24 22:56:06;;;;;;;9.57;2.42;;;27.70;38.60;;;;;;21141020;27;81336;-73
2021/08/24 23:06:08;;;;;;;8.18;2.50;;;27.50;38.80;;;;;;21120977;27;80605;-73
2021/08/24 23:16:12;;;;;;;6.70;2.20;;;27.30;39.00;;;;;;21140939;27;80654;-76
2021/08/24 23:26:16;;;;;;;11.32;2.40;;;27.20;39.40;;;;;;21119334;27;80008;-72
2021/08/24 23:36:18;;;;;;;9.02;2.25;;;27.00;39.80;;;;;;21132920;27;80729;-77
2021/08/24 23:46:20;;;;;;;10.40;2.97;;;26.90;40.30;;;;;;21134825;27;80794;-72
2021/08/24 23:56:22;;;;;;;8.40;2.55;;;26.70;40.80;;;;;;21151198;27;81245;-73
